createdAt,value
2019-01-25T00:02:18.033Z,-3.20
2019-01-25T00:05:06.477Z,-3.20
2019-01-25T00:07:54.111Z,-3.20
2019-01-25T00:10:42.353Z,-3.20
2019-01-25T00:13:29.936Z,-3.10
2019-01-25T00:16:17.953Z,-3.10
2019-01-25T00:19:05.812Z,-3.10
2019-01-25T00:21:53.604Z,-3.10
2019-01-25T00:24:41.162Z,-3.20
2019-01-25T00:27:29.770Z,-3.10
2019-01-25T00:30:18.489Z,-3.10
2019-01-25T00:33:06.362Z,-3.10
2019-01-25T00:35:53.649Z,-3.20
2019-01-25T00:38:41.936Z,-3.20
2019-01-25T00:41:29.113Z,-3.10
2019-01-25T00:44:16.454Z,-3.10
2019-01-25T00:47:03.736Z,-3.10
2019-01-25T00:49:51.758Z,-3.10
2019-01-25T00:52:39.085Z,-3.10
2019-01-25T00:55:26.573Z,-3.00
2019-01-25T00:58:14.526Z,-3.10
2019-01-25T01:01:02.378Z,-3.10
2019-01-25T01:03:50.005Z,-3.20
2019-01-25T01:06:37.814Z,-3.20
2019-01-25T01:09:24.846Z,-3.20
2019-01-25T01:12:12.306Z,-3.20
2019-01-25T01:14:59.437Z,-3.20
2019-01-25T01:17:48.121Z,-3.20
2019-01-25T01:20:35.494Z,-3.10
2019-01-25T01:23:22.673Z,-3.20
2019-01-25T01:26:09.795Z,-3.20
2019-01-25T01:28:57.342Z,-3.20
2019-01-25T01:31:44.473Z,-3.10
2019-01-25T01:34:31.853Z,-3.10
2019-01-25T01:37:19.178Z,-3.10
2019-01-25T01:40:10.034Z,-3.10
2019-01-25T01:42:57.284Z,-3.10
2019-01-25T01:45:44.661Z,-3.20
2019-01-25T01:48:32.070Z,-3.20
2019-01-25T01:51:20.138Z,-3.10
2019-01-25T01:54:07.682Z,-3.10
2019-01-25T01:56:55.245Z,-3.10
2019-01-25T01:59:42.880Z,-3.10
2019-01-25T02:02:30.354Z,-3.10
2019-01-25T02:05:18.129Z,-3.00
2019-01-25T02:08:05.481Z,-3.00
2019-01-25T02:10:52.830Z,-3.00
2019-01-25T02:13:40.305Z,-3.00
2019-01-25T02:16:28.246Z,-2.90
2019-01-25T02:19:15.741Z,-2.90
2019-01-25T02:22:04.630Z,-3.00
2019-01-25T02:24:51.826Z,-3.00
2019-01-25T02:27:39.278Z,-3.00
2019-01-25T02:30:27.204Z,-3.00
2019-01-25T02:33:14.937Z,-3.00
2019-01-25T02:36:02.195Z,-3.00
2019-01-25T02:38:50.202Z,-3.00
2019-01-25T02:41:37.446Z,-3.00
2019-01-25T02:44:24.931Z,-2.90
2019-01-25T02:47:12.475Z,-2.90
2019-01-25T02:50:00.313Z,-2.90
2019-01-25T02:52:48.790Z,-3.00
2019-01-25T02:55:36.166Z,-3.00
2019-01-25T02:58:24.222Z,-3.00
2019-01-25T03:01:12.156Z,-3.00
2019-01-25T03:04:00.082Z,-3.00
2019-01-25T03:06:48.045Z,-3.00
2019-01-25T03:09:35.470Z,-3.00
2019-01-25T03:12:22.873Z,-3.10
2019-01-25T03:15:16.397Z,-3.20
2019-01-25T03:18:04.593Z,-3.20
2019-01-25T03:20:52.109Z,-3.20
2019-01-25T03:23:39.506Z,-3.20
2019-01-25T03:26:26.959Z,-3.30
2019-01-25T03:29:15.213Z,-3.20
2019-01-25T03:32:02.752Z,-3.30
2019-01-25T03:34:50.403Z,-3.30
2019-01-25T03:37:37.995Z,-3.30
2019-01-25T03:40:26.790Z,-3.30
2019-01-25T03:43:14.194Z,-3.30
2019-01-25T03:46:01.811Z,-3.30
2019-01-25T03:48:49.129Z,-3.30
2019-01-25T03:51:37.040Z,-3.30
2019-01-25T03:54:24.393Z,-3.40
2019-01-25T03:57:11.424Z,-3.40
2019-01-25T03:59:58.651Z,-3.40
2019-01-25T04:02:45.801Z,-3.40
2019-01-25T04:05:33.475Z,-3.40
2019-01-25T04:08:21.043Z,-3.40
2019-01-25T04:11:08.550Z,-3.40
2019-01-25T04:13:55.972Z,-3.50
2019-01-25T04:16:42.954Z,-3.50
2019-01-25T04:19:30.281Z,-3.50
2019-01-25T04:22:17.715Z,-3.60
2019-01-25T04:25:08.880Z,-3.50
2019-01-25T04:27:56.354Z,-3.60
2019-01-25T04:30:43.810Z,-3.50
2019-01-25T04:33:31.026Z,-3.50
2019-01-25T04:36:18.098Z,-3.40
2019-01-25T04:39:07.704Z,-3.40
2019-01-25T04:41:55.688Z,-3.30
2019-01-25T04:44:43.119Z,-3.30
2019-01-25T04:47:30.451Z,-3.20
2019-01-25T04:50:20.217Z,-3.20
2019-01-25T04:53:07.932Z,-3.10
2019-01-25T04:55:55.133Z,-3.10
2019-01-25T04:58:41.965Z,-3.00
2019-01-25T05:01:29.349Z,-3.00
2019-01-25T05:04:16.751Z,-2.90
2019-01-25T05:07:04.650Z,-2.90
2019-01-25T05:09:52.370Z,-2.90
2019-01-25T05:12:39.599Z,-2.90
2019-01-25T05:15:27.739Z,-2.90
2019-01-25T05:18:15.935Z,-2.90
2019-01-25T05:21:03.531Z,-2.90
2019-01-25T05:23:51.397Z,-2.90
2019-01-25T05:26:38.594Z,-2.90
2019-01-25T05:29:29.286Z,-2.90
2019-01-25T05:32:16.877Z,-2.90
2019-01-25T05:35:05.203Z,-2.90
2019-01-25T05:37:53.071Z,-2.90
2019-01-25T05:40:40.057Z,-2.90
2019-01-25T05:43:31.357Z,-2.90
2019-01-25T05:46:18.826Z,-2.90
2019-01-25T05:49:06.205Z,-3.00
2019-01-25T05:51:54.377Z,-3.00
2019-01-25T05:54:42.072Z,-3.00
2019-01-25T05:57:29.422Z,-2.90
2019-01-25T06:00:17.113Z,-2.90
2019-01-25T06:03:06.889Z,-3.00
2019-01-25T06:05:57.419Z,-3.10
2019-01-25T06:08:44.904Z,-3.10
2019-01-25T06:11:35.681Z,-3.10
2019-01-25T06:14:22.946Z,-3.00
2019-01-25T06:17:10.282Z,-2.90
2019-01-25T06:19:57.382Z,-3.00
2019-01-25T06:22:44.641Z,-3.00
2019-01-25T06:25:32.460Z,-2.80
2019-01-25T06:28:20.409Z,-2.90
2019-01-25T06:31:07.846Z,-2.90
2019-01-25T06:33:55.034Z,-2.80
2019-01-25T06:36:42.900Z,-2.80
2019-01-25T06:39:30.397Z,-2.80
2019-01-25T06:42:17.585Z,-2.80
2019-01-25T06:45:07.326Z,-2.90
2019-01-25T06:47:55.116Z,-2.80
2019-01-25T06:50:42.657Z,-2.80
2019-01-25T06:53:30.313Z,-2.80
2019-01-25T06:56:17.449Z,-2.80
2019-01-25T06:59:05.138Z,-2.90
2019-01-25T07:01:52.794Z,-2.90
2019-01-25T07:04:40.201Z,-2.90
2019-01-25T07:07:27.582Z,-2.80
2019-01-25T07:10:17.935Z,-2.80
2019-01-25T07:13:05.020Z,-2.80
2019-01-25T07:15:52.293Z,-2.80
2019-01-25T07:18:39.697Z,-2.90
2019-01-25T07:21:27.297Z,-2.90
2019-01-25T07:24:15.249Z,-2.90
2019-01-25T07:27:02.968Z,-2.80
2019-01-25T07:29:50.642Z,-2.90
2019-01-25T07:32:37.666Z,-2.80
2019-01-25T07:35:25.599Z,-2.70
2019-01-25T07:38:13.282Z,-2.70
2019-01-25T07:41:01.015Z,-2.60
2019-01-25T07:43:48.557Z,-2.60
2019-01-25T07:46:35.815Z,-2.60
2019-01-25T07:49:23.197Z,-2.60
2019-01-25T07:52:10.205Z,-2.60
2019-01-25T07:54:57.806Z,-2.50
2019-01-25T07:57:45.719Z,-2.40
2019-01-25T08:00:32.942Z,-2.40
2019-01-25T08:03:20.523Z,-2.20
2019-01-25T08:06:08.595Z,-2.20
2019-01-25T08:08:56.709Z,-2.20
2019-01-25T08:11:44.341Z,-2.20
2019-01-25T08:14:31.496Z,-2.20
2019-01-25T08:17:19.443Z,-2.10
2019-01-25T08:20:10.873Z,-2.10
2019-01-25T08:22:58.179Z,-2.00
2019-01-25T08:25:45.827Z,-1.90
2019-01-25T08:28:33.748Z,-1.90
2019-01-25T08:31:21.057Z,-1.80
2019-01-25T08:34:09.210Z,-1.80
2019-01-25T08:36:56.516Z,-1.80
2019-01-25T08:39:43.958Z,-1.80
2019-01-25T08:42:31.359Z,-1.70
2019-01-25T08:45:19.038Z,-1.70
2019-01-25T08:48:06.247Z,-1.80
2019-01-25T08:50:53.402Z,-1.70
2019-01-25T08:53:41.521Z,-1.60
2019-01-25T08:56:29.879Z,-1.50
2019-01-25T08:59:17.285Z,-1.40
2019-01-25T09:02:04.637Z,-1.30
2019-01-25T09:04:51.939Z,-1.20
2019-01-25T09:07:39.297Z,-1.20
2019-01-25T09:10:27.001Z,-1.20
2019-01-25T09:13:14.673Z,-1.10
2019-01-25T09:16:02.322Z,-1.10
2019-01-25T09:18:49.865Z,-1.10
2019-01-25T09:21:37.449Z,-1.10
2019-01-25T09:24:24.494Z,-1.10
2019-01-25T09:27:11.983Z,-1.00
2019-01-25T09:29:58.934Z,-1.00
2019-01-25T09:32:47.491Z,-0.90
2019-01-25T09:35:35.018Z,-0.90
2019-01-25T09:38:22.013Z,-0.90
2019-01-25T09:41:09.145Z,-0.90
2019-01-25T09:43:56.658Z,-0.90
2019-01-25T09:46:44.034Z,-0.90
2019-01-25T09:49:31.025Z,-0.90
2019-01-25T09:52:18.633Z,-0.90
2019-01-25T09:55:09.499Z,-0.80
2019-01-25T09:58:12.389Z,-0.80
2019-01-25T10:01:02.660Z,-0.70
2019-01-25T10:03:50.563Z,-0.70
2019-01-25T10:06:37.916Z,-0.60
2019-01-25T10:09:25.030Z,-0.50
2019-01-25T10:12:11.924Z,-0.50
2019-01-25T10:15:00.258Z,-0.60
2019-01-25T10:17:47.886Z,-0.50
2019-01-25T10:20:35.890Z,-0.50
2019-01-25T10:23:23.306Z,-0.50
2019-01-25T10:26:10.705Z,-0.50
2019-01-25T10:28:58.406Z,-0.40
2019-01-25T10:31:46.442Z,-0.40
2019-01-25T10:34:33.782Z,-0.30
2019-01-25T10:37:21.635Z,-0.20
2019-01-25T10:40:11.897Z,-0.20
2019-01-25T10:42:59.140Z,0.00
2019-01-25T10:45:46.514Z,0.10
2019-01-25T10:48:34.071Z,0.00
2019-01-25T10:51:21.269Z,0.10
2019-01-25T10:54:08.561Z,0.00
2019-01-25T10:56:56.181Z,0.00
2019-01-25T10:59:43.733Z,0.00
2019-01-25T11:02:31.495Z,0.10
2019-01-25T11:05:29.524Z,0.10
2019-01-25T11:08:16.726Z,0.10
2019-01-25T11:11:04.080Z,0.20
2019-01-25T11:13:51.066Z,0.20
2019-01-25T11:16:38.566Z,0.30
2019-01-25T11:19:25.547Z,0.30
2019-01-25T11:22:12.805Z,0.30
2019-01-25T11:24:59.929Z,0.30
2019-01-25T11:27:47.436Z,0.30
2019-01-25T11:30:34.793Z,0.30
2019-01-25T11:33:22.440Z,0.40
2019-01-25T11:36:09.402Z,0.60
2019-01-25T11:38:58.309Z,0.70
2019-01-25T11:41:45.897Z,0.70
2019-01-25T11:44:33.623Z,0.80
2019-01-25T11:47:21.653Z,0.70
2019-01-25T11:50:12.866Z,0.60
2019-01-25T11:53:00.606Z,0.70
2019-01-25T11:55:48.227Z,0.60
2019-01-25T11:58:35.869Z,0.50
2019-01-25T12:01:23.242Z,0.60
2019-01-25T12:04:10.912Z,0.60
2019-01-25T12:06:58.441Z,0.60
2019-01-25T12:09:45.417Z,0.60
2019-01-25T12:12:32.609Z,0.60
2019-01-25T12:15:20.150Z,0.60
2019-01-25T12:18:08.161Z,0.60
2019-01-25T12:20:55.802Z,0.60
2019-01-25T12:23:43.665Z,0.60
2019-01-25T12:26:31.603Z,0.70
2019-01-25T12:29:19.023Z,0.70
2019-01-25T12:32:06.220Z,0.70
2019-01-25T12:34:53.721Z,0.70
2019-01-25T12:37:41.747Z,0.70
2019-01-25T12:40:29.603Z,0.70
2019-01-25T12:43:23.853Z,0.80
2019-01-25T12:46:07.544Z,0.90
2019-01-25T12:48:55.762Z,0.90
2019-01-25T12:51:46.923Z,1.10
2019-01-25T12:54:34.705Z,1.10
2019-01-25T12:57:22.309Z,1.00
2019-01-25T13:00:12.843Z,1.00
2019-01-25T13:03:00.554Z,1.10
2019-01-25T13:05:48.285Z,1.20
2019-01-25T13:08:35.943Z,1.20
2019-01-25T13:11:23.269Z,1.20
2019-01-25T13:14:10.377Z,1.20
2019-01-25T13:16:57.730Z,1.30
2019-01-25T13:19:45.207Z,1.40
2019-01-25T13:22:32.842Z,1.40
2019-01-25T13:25:20.465Z,1.40
2019-01-25T13:28:08.038Z,1.40
2019-01-25T13:30:55.382Z,1.50
2019-01-25T13:33:43.249Z,1.50
2019-01-25T13:36:30.994Z,1.50
2019-01-25T13:39:18.235Z,1.50
2019-01-25T13:42:05.866Z,1.40
2019-01-25T13:44:53.865Z,1.50
2019-01-25T13:47:41.590Z,1.40
2019-01-25T13:50:29.732Z,1.60
2019-01-25T13:53:30.842Z,1.60
2019-01-25T13:56:18.402Z,1.60
2019-01-25T13:59:05.831Z,1.60
2019-01-25T14:01:56.170Z,1.60
2019-01-25T14:04:44.526Z,1.60
2019-01-25T14:07:32.403Z,1.60
2019-01-25T14:10:25.562Z,1.60
2019-01-25T14:13:12.785Z,1.60
2019-01-25T14:15:59.921Z,1.60
2019-01-25T14:18:47.634Z,1.60
2019-01-25T14:21:35.650Z,1.70
2019-01-25T14:24:23.717Z,1.60
2019-01-25T14:27:11.229Z,1.60
2019-01-25T14:29:58.761Z,1.60
2019-01-25T14:32:46.092Z,1.70
2019-01-25T14:35:34.322Z,1.70
2019-01-25T14:38:21.497Z,1.80
2019-01-25T14:41:08.973Z,1.80
2019-01-25T14:43:56.877Z,1.80
2019-01-25T14:46:44.083Z,1.90
2019-01-25T14:49:32.074Z,2.00
2019-01-25T14:52:19.782Z,2.00
2019-01-25T14:55:07.321Z,2.00
2019-01-25T14:57:54.818Z,1.90
2019-01-25T15:00:42.609Z,1.90
2019-01-25T15:03:30.421Z,1.80
2019-01-25T15:06:17.650Z,1.80
2019-01-25T15:09:07.782Z,1.70
2019-01-25T15:11:55.563Z,1.70
2019-01-25T15:14:42.834Z,1.70
2019-01-25T15:17:30.099Z,1.70
2019-01-25T15:20:18.286Z,1.70
2019-01-25T15:23:05.175Z,1.70
2019-01-25T15:25:52.156Z,1.70
2019-01-25T15:28:38.743Z,1.60
2019-01-25T15:31:25.437Z,1.60
2019-01-25T15:34:12.057Z,1.60
2019-01-25T15:36:59.022Z,1.60
2019-01-25T15:39:45.492Z,1.60
2019-01-25T15:42:32.440Z,1.60
2019-01-25T15:45:19.853Z,1.60
2019-01-25T15:48:06.265Z,1.60
2019-01-25T15:50:54.001Z,1.50
2019-01-25T15:53:40.513Z,1.50
2019-01-25T15:56:26.823Z,1.50
2019-01-25T16:00:09.049Z,1.50
2019-01-25T16:02:55.725Z,1.50
2019-01-25T16:05:42.061Z,1.50
2019-01-25T16:08:28.897Z,1.50
2019-01-25T16:11:16.656Z,1.80
2019-01-25T16:14:04.029Z,1.80
2019-01-25T16:16:51.205Z,1.80
2019-01-25T16:19:38.458Z,1.80
2019-01-25T16:22:25.966Z,1.70
2019-01-25T16:25:16.190Z,1.70
2019-01-25T16:28:03.900Z,1.70
2019-01-25T16:30:51.214Z,1.70
2019-01-25T16:33:38.961Z,1.60
2019-01-25T16:36:26.637Z,1.60
2019-01-25T16:39:14.278Z,1.60
2019-01-25T16:42:01.690Z,1.50
2019-01-25T16:44:49.015Z,1.50
2019-01-25T16:47:36.508Z,1.50
2019-01-25T16:50:24.148Z,1.40
2019-01-25T16:53:11.789Z,1.40
2019-01-25T16:55:59.442Z,1.40
2019-01-25T16:58:47.057Z,1.30
2019-01-25T17:01:34.598Z,1.30
2019-01-25T17:04:21.802Z,1.20
2019-01-25T17:07:09.242Z,1.20
2019-01-25T17:09:57.190Z,1.10
2019-01-25T17:12:45.501Z,1.10
2019-01-25T17:15:33.137Z,1.10
2019-01-25T17:18:21.095Z,1.10
2019-01-25T17:21:08.609Z,1.00
2019-01-25T17:23:56.193Z,1.00
2019-01-25T17:26:43.431Z,1.00
2019-01-25T17:29:31.082Z,1.00
2019-01-25T17:32:18.306Z,1.00
2019-01-25T17:35:07.570Z,1.00
2019-01-25T17:37:55.050Z,1.00
2019-01-25T17:40:46.888Z,1.00
2019-01-25T17:43:32.405Z,1.00
2019-01-25T17:46:19.637Z,0.90
2019-01-25T17:49:07.154Z,1.00
2019-01-25T17:51:54.578Z,0.90
2019-01-25T17:54:42.305Z,1.00
2019-01-25T17:57:29.921Z,1.00
2019-01-25T18:00:25.784Z,1.00
2019-01-25T18:03:13.257Z,1.00
2019-01-25T18:06:00.840Z,1.00
2019-01-25T18:08:48.418Z,1.00
2019-01-25T18:11:35.621Z,1.10
2019-01-25T18:14:22.906Z,1.10
2019-01-25T18:17:10.434Z,1.10
2019-01-25T18:19:57.793Z,1.10
2019-01-25T18:22:44.996Z,1.20
2019-01-25T18:25:35.651Z,1.20
2019-01-25T18:28:28.862Z,1.20
2019-01-25T18:31:19.571Z,1.20
2019-01-25T18:34:06.776Z,1.30
2019-01-25T18:36:54.166Z,1.30
2019-01-25T18:39:41.787Z,1.30
2019-01-25T18:42:29.830Z,1.30
2019-01-25T18:45:17.754Z,1.40
2019-01-25T18:48:05.610Z,1.40
2019-01-25T18:50:52.981Z,1.40
2019-01-25T18:53:40.361Z,1.40
2019-01-25T18:56:27.524Z,1.50
2019-01-25T18:59:14.688Z,1.50
2019-01-25T19:02:01.955Z,1.50
2019-01-25T19:04:49.185Z,1.50
2019-01-25T19:07:36.646Z,1.50
2019-01-25T19:10:27.186Z,1.50
2019-01-25T19:13:14.873Z,1.60
2019-01-25T19:16:02.889Z,1.60
2019-01-25T19:18:50.093Z,1.60
2019-01-25T19:21:37.250Z,1.60
2019-01-25T19:24:24.680Z,1.60
2019-01-25T19:27:12.561Z,1.60
2019-01-25T19:30:00.437Z,1.60
2019-01-25T19:32:47.634Z,1.60
2019-01-25T19:35:35.070Z,1.70
2019-01-25T19:38:22.589Z,1.70
2019-01-25T19:41:09.990Z,1.70
2019-01-25T19:43:57.422Z,1.70
2019-01-25T19:46:44.841Z,1.70
2019-01-25T19:49:32.626Z,1.80
2019-01-25T19:52:19.905Z,1.80
2019-01-25T19:55:11.470Z,1.80
2019-01-25T19:58:00.985Z,1.80
2019-01-25T20:00:48.973Z,1.80
2019-01-25T20:03:37.831Z,1.80
2019-01-25T20:06:25.571Z,1.80
2019-01-25T20:09:12.781Z,1.80
2019-01-25T20:12:00.524Z,1.70
2019-01-25T20:14:48.018Z,1.70
2019-01-25T20:17:35.017Z,1.80
2019-01-25T20:20:27.394Z,1.80
2019-01-25T20:23:15.125Z,1.80
2019-01-25T20:26:03.184Z,1.80
2019-01-25T20:28:50.690Z,1.80
2019-01-25T20:31:38.042Z,1.80
2019-01-25T20:34:26.273Z,1.80
2019-01-25T20:37:14.209Z,1.80
2019-01-25T20:40:01.389Z,1.90
2019-01-25T20:42:49.350Z,1.90
2019-01-25T20:45:39.097Z,1.90
2019-01-25T20:48:26.581Z,1.90
2019-01-25T20:51:13.733Z,1.90
2019-01-25T20:54:00.898Z,1.90
2019-01-25T20:56:48.505Z,1.90
2019-01-25T20:59:35.808Z,1.90
2019-01-25T21:02:23.208Z,1.90
2019-01-25T21:05:10.464Z,1.90
2019-01-25T21:07:57.726Z,1.90
2019-01-25T21:10:45.317Z,1.90
2019-01-25T21:13:32.510Z,1.90
2019-01-25T21:16:19.617Z,2.00
2019-01-25T21:19:07.288Z,2.00
2019-01-25T21:21:54.521Z,2.00
2019-01-25T21:24:42.066Z,2.00
2019-01-25T21:27:29.284Z,2.00
2019-01-25T21:30:22.510Z,2.00
2019-01-25T21:33:09.425Z,2.00
2019-01-25T21:35:56.867Z,2.10
2019-01-25T21:38:44.717Z,2.10
2019-01-25T21:41:32.070Z,2.10
2019-01-25T21:44:19.705Z,2.10
2019-01-25T21:47:07.182Z,2.10
2019-01-25T21:49:54.345Z,2.20
2019-01-25T21:52:41.638Z,2.20
2019-01-25T21:55:29.226Z,2.20
2019-01-25T21:58:16.334Z,2.30
2019-01-25T22:01:03.981Z,2.30
2019-01-25T22:03:51.995Z,2.30
2019-01-25T22:06:40.131Z,2.30
2019-01-25T22:09:28.030Z,2.30
2019-01-25T22:12:15.454Z,2.30
2019-01-25T22:15:04.522Z,2.30
2019-01-25T22:17:52.362Z,2.30
2019-01-25T22:20:39.084Z,2.40
2019-01-25T22:23:25.438Z,2.40
2019-01-25T22:26:11.765Z,2.40
2019-01-25T22:28:58.359Z,2.40
2019-01-25T22:31:45.049Z,2.50
2019-01-25T22:34:31.442Z,2.50
2019-01-25T22:37:18.206Z,2.60
2019-01-25T22:40:12.982Z,2.50
2019-01-25T22:42:59.606Z,2.60
2019-01-25T22:45:46.538Z,2.60
2019-01-25T22:48:33.577Z,2.60
2019-01-25T22:51:19.921Z,2.60
2019-01-25T22:54:06.585Z,2.60
2019-01-25T22:56:53.255Z,2.70
2019-01-25T22:59:39.838Z,2.70
2019-01-25T23:02:26.322Z,2.70
2019-01-25T23:05:14.258Z,2.70
2019-01-25T23:08:01.033Z,2.70
2019-01-25T23:10:47.453Z,2.80
2019-01-25T23:13:34.409Z,2.80
2019-01-25T23:16:21.322Z,2.80
2019-01-25T23:19:08.056Z,2.80
2019-01-25T23:21:55.152Z,2.90
2019-01-25T23:24:42.244Z,2.90
2019-01-25T23:27:28.974Z,2.90
2019-01-25T23:30:15.689Z,2.90
2019-01-25T23:33:02.189Z,2.90
2019-01-25T23:35:48.517Z,2.90
2019-01-25T23:38:34.925Z,2.90
2019-01-25T23:41:21.502Z,2.90
2019-01-25T23:44:07.912Z,2.90
2019-01-25T23:46:54.614Z,2.90
2019-01-25T23:49:41.713Z,3.00
2019-01-25T23:52:28.322Z,3.00
2019-01-25T23:55:15.349Z,3.00
2019-01-25T23:58:02.445Z,3.00
